Camp Springs, Maryland
Current Conditions -  °F | °C
As of 12:58 AM on Thursday 27 Nov 2014 (Local Time) from KADW Reporting Station
Clear Clear  
Wind Chill: 30°   Ceiling: Unl
Heat Index: 35°   Visibility: 10mi
Dew Point: 32°   Wind: 6mph
Humidity: 89%   Direction: 300°WNW
Pressure: 29.99"   Gusts: NA
Location:  38.8182°N, 76.9414°W
Report Text: KADW 270558Z AUTO 30005KT 10SM CLR 02/00 A2999 RMK AO2 SLP165 60000 T00170001 10027 20017 50003 $
Loading
Personal Weather Stations






























Interactive Weather Map New forecast layout! Learn more

10-Day Weather Forecast

Advertisements
Track Severe Weather on mobile